Flight Track Log - Related Links

Times and Time Zones

All times are in EDT time to prevent confusion due to time zone crossing. See the EJA929 flight status page for this flight to view local times or setup timezone preferences in your user account.

Time Position Orientation Groundspeed Altitude Reporting Facility
EDT Latitude Longitude Course Direction KTS MPH feet Rate Location/Type
Thu 03:35:06 PM 33.5444 -86.7906 234° Southwest 177 204 1,800  Level Atlanta Center
Thu 03:36:25 PM 33.4989 -86.8661 234° Southwest 225 259 7,200 3,320 Climbing Atlanta Center
Thu 03:37:36 PM 33.4511 -86.9444 234° Southwest 261 300 10,100 2,290 Climbing Atlanta Center
Thu 03:38:36 PM 33.3903 -87.0467 235° Southwest 323 372 12,200 2,200 Climbing Atlanta Center
Thu 03:39:36 PM 33.3228 -87.1514 232° Southwest 380 437 14,500 1,950 Climbing Atlanta Center
Thu 03:40:36 PM 33.2639 -87.2586 237° Southwest 385 443 16,100 800 Climbing Atlanta Center
Thu 03:41:36 PM 33.1961 -87.3703 234° Southwest 407 468 16,100  Level Atlanta Center
Thu 03:42:36 PM 33.1258 -87.4914 235° Southwest 432 497 16,100  Level Atlanta Center
Thu 03:43:36 PM 33.0581 -87.6078 235° Southwest 442 509 16,100  Level Atlanta Center
Thu 03:44:36 PM 32.9667 -87.7278 228° Southwest 442 509 16,100  Level Atlanta Center
Thu 03:46:02 PM 32.8494 -87.8647 224° Southwest 446 513 16,100  Level Memphis Center
Thu 03:47:02 PM 32.7578 -87.9858 228° Southwest 446 513 16,100 -50 Level Memphis Center
Thu 03:48:02 PM 32.6761 -88.0867 226° Southwest 439 505 16,000 -50 Descending Memphis Center
Thu 03:49:02 PM 32.5883 -88.1900 225° Southwest 439 505 16,000 50 Level Memphis Center
Thu 03:50:02 PM 32.5025 -88.2981 227° Southwest 434 499 16,100 50 Climbing Memphis Center
Thu 03:51:02 PM 32.4164 -88.4058 227° Southwest 440 506 16,100  Level Memphis Center
Thu 03:52:02 PM 32.3067 -88.4597 203° Southwest 440 506 16,100  Level Memphis Center
Thu 03:53:02 PM 32.1856 -88.4500 176° South 414 476 16,100  Level Memphis Center
Thu 03:54:02 PM 32.0622 -88.4431 177° South 427 491 16,100  Level Memphis Center
Thu 03:55:02 PM 31.9536 -88.4356 177° South 435 501 16,100  Level Memphis Center
Thu 03:55:45 PM 31.8722 -88.4278 175° South 442 509 16,100  Level Houston Center
Thu 03:56:47 PM 31.7250 -88.4206 178° South 440 506 16,100 -48 Level Houston Center
Thu 03:57:49 PM 31.6014 -88.4128 177° South 444 511 16,000 -97 Descending Houston Center
Thu 03:58:51 PM 31.4783 -88.4042 177° South 443 510 15,900 -871 Descending Houston Center
Thu 03:59:53 PM 31.3531 -88.3969 177° South 449 517 14,200 -1,645 Descending Houston Center
Thu 04:00:55 PM 31.2336 -88.3894 177° South 437 503 12,500 -1,790 Descending Houston Center
Thu 04:01:57 PM 31.1039 -88.3825 177° South 400 460 10,500 -1,694 Descending Houston Center
Thu 04:02:59 PM 31.0206 -88.3556 165° South 326 375 9,000 -1,512 Descending Houston Center
Thu 04:04:00 PM 30.9583 -88.3011 143° Southeast 291 335 7,400 -1,659 Descending Houston Center
Thu 04:05:02 PM 30.8981 -88.2472 143° Southeast 281 323 5,600 -1,645 Descending Houston Center
Thu 04:06:04 PM 30.8278 -88.1803 141° Southeast 276 318 4,000 -823 Descending Houston Center
Thu 04:07:06 PM 30.7722 -88.1267 140° Southeast 266 306 3,900 -48 Descending Houston Center
Thu 04:08:08 PM 30.7158 -88.0708 140° Southeast 265 305 3,900 -323 Level Houston Center
Thu 04:10:12 PM 30.6156 -87.9669 138° Southeast 238 274 2,900 -323 Descending Houston Center
Thu 04:11:14 PM 30.5711 -87.9169 136° Southeast 226 260 2,900 -484 Level Houston Center
Thu 04:12:16 PM 30.5128 -87.8819 153° Southeast 224 258 1,900 -484 Descending Houston Center
Thu 04:13:18 PM 30.5019 -87.9314 256° West 192 221 1,900  Level Houston Center
Thu 04:14:20 PM 30.5300 -87.9744 307° West 177 204 1,900 -240 Level Houston Center
Thu 04:15:23 PM 30.5589 -88.0031 320° Northwest 156 180 1,400 -528 Descending Houston Center
Thu 04:16:25 PM 30.5856 -88.0294 320° Northwest 139 160 800 -581 Descending Houston Center
Thu 04:17:27 PM 30.6153 -88.0594 319° Northwest 134 154 200 -581 Descending Houston Center
Thu 04:19:00 PM 30.6167 -88.0667 304° West  Level FlightAware Approximate

Login

Don't have an account? Register now (free) for customized features, flight alerts, and more!